Terminal Aerodrome Forecast
Issued by NWS Paducah, KY

Home | Current Version | Previous Version | Graphics & Text | Print | Product List | Glossary On
Versions: 1 2 3 4 5 6 7 8 9 10 11 12 13 14 15 16 17
000
FTUS43 KPAH 042040 AAA
TAFEVV
TAF AMD
KEVV 042040Z 0421/0518 VRB06KT P6SM VCTS SCT060CB
      TEMPO 0421/0424 VRB15G25KT 6SM -TSRA BKN035CB
     FM050000 02004KT P6SM FEW150 BKN250
     FM050900 04004KT P6SM VCSH SCT050 BKN150
     FM051500 12004KT P6SM VCSH SCT030 BKN080 PROB30 0515/0518 4SM
      TSRA BKN035CB=

USA.gov is the U.S. government's official web portal to all federal, state and local government web resources and services.